Terminal Aerodrome Forecast
Issued by NWS Knoxville/Tri Cities, TN

Home | Current Version | Previous Version | Text Only | Print | Product List | Glossary On
Versions: 1 2 3 4 5 6 7 8 9 10 11 12 13 14 15 16 17 18 19 20 21 22 23 24 25 26 27 28 29 30
689
FTUS44 KMRX 270520
TAFTRI
TAF
KTRI 270520Z 2706/2806 00000KT P6SM SCT250
     FM270900 00000KT 5SM BR SCT250
      TEMPO 2709/2711 2SM BR
     FM271300 12003KT P6SM FEW060 SCT250=

USA.gov is the U.S. government's official web portal to all federal, state and local government web resources and services.